createdAt,value
2023-02-17T00:01:29.734Z,10.43
2023-02-17T00:03:58.272Z,5.70
2023-02-17T00:06:30.356Z,12.25
2023-02-17T00:08:59.575Z,10.75
2023-02-17T00:11:28.448Z,11.73
2023-02-17T00:13:57.169Z,10.65
2023-02-17T00:16:27.316Z,4.07
2023-02-17T00:18:56.933Z,12.68
2023-02-17T00:21:29.246Z,10.60
2023-02-17T00:23:59.872Z,8.80
2023-02-17T00:26:28.376Z,14.02
2023-02-17T00:28:56.502Z,11.35
2023-02-17T00:31:25.501Z,6.95
2023-02-17T00:33:56.584Z,11.98
2023-02-17T00:36:26.235Z,6.00
2023-02-17T00:38:58.122Z,12.68
2023-02-17T00:41:28.043Z,11.90
2023-02-17T00:43:56.486Z,12.70
2023-02-17T00:46:25.283Z,10.45
2023-02-17T00:48:53.690Z,11.82
2023-02-17T00:51:22.258Z,10.63
2023-02-17T00:53:50.587Z,6.45
2023-02-17T00:56:20.431Z,11.60
2023-02-17T00:58:48.640Z,11.27
2023-02-17T01:01:16.882Z,10.05
2023-02-17T01:03:45.453Z,3.20
2023-02-17T01:06:23.016Z,6.88
2023-02-17T01:08:51.193Z,8.30
2023-02-17T01:11:22.694Z,6.97
2023-02-17T01:13:50.977Z,9.20
2023-02-17T01:16:21.509Z,11.90
2023-02-17T01:18:49.792Z,5.55
2023-02-17T01:21:19.083Z,3.38
2023-02-17T01:23:47.447Z,3.60
2023-02-17T01:26:17.146Z,8.45
2023-02-17T01:28:47.472Z,8.75
2023-02-17T01:31:16.303Z,6.40
2023-02-17T01:33:44.822Z,10.77
2023-02-17T01:36:18.333Z,7.78
2023-02-17T01:38:47.862Z,5.28
2023-02-17T01:41:18.073Z,9.18
2023-02-17T01:44:13.457Z,5.53
2023-02-17T01:46:43.253Z,9.32
2023-02-17T01:49:21.835Z,7.20
2023-02-17T01:51:54.649Z,6.82
2023-02-17T01:54:27.784Z,10.85
2023-02-17T01:56:58.211Z,4.72
2023-02-17T01:59:29.694Z,11.48
2023-02-17T02:02:02.040Z,6.15
2023-02-17T02:04:33.656Z,5.72
2023-02-17T02:07:02.046Z,7.65
2023-02-17T02:09:34.358Z,7.13
2023-02-17T02:12:02.894Z,9.02
2023-02-17T02:14:32.528Z,6.53
2023-02-17T02:17:12.264Z,8.90
2023-02-17T02:20:11.924Z,6.97
2023-02-17T02:23:14.873Z,7.55
2023-02-17T02:26:19.094Z,8.98
2023-02-17T02:29:06.340Z,5.85
2023-02-17T02:31:46.135Z,5.45
2023-02-17T02:34:22.055Z,11.70
2023-02-17T02:36:57.086Z,8.20
2023-02-17T02:39:29.608Z,6.85
2023-02-17T02:42:02.494Z,13.07
2023-02-17T02:44:30.695Z,8.88
2023-02-17T02:47:00.167Z,5.95
2023-02-17T02:49:32.169Z,6.70
2023-02-17T02:52:05.842Z,9.48
2023-02-17T02:54:42.668Z,8.52
2023-02-17T02:57:27.448Z,3.80
2023-02-17T03:00:16.990Z,7.15
2023-02-17T03:02:52.381Z,5.25
2023-02-17T03:05:34.441Z,6.00
2023-02-17T03:08:09.730Z,6.75
2023-02-17T03:10:45.531Z,9.52
2023-02-17T03:13:14.050Z,2.28
2023-02-17T03:15:43.264Z,9.07
2023-02-17T03:18:11.644Z,6.63
2023-02-17T03:20:45.159Z,9.65
2023-02-17T03:23:13.518Z,6.18
2023-02-17T03:25:41.986Z,5.30
2023-02-17T03:28:10.490Z,8.90
2023-02-17T03:30:39.042Z,4.35
2023-02-17T03:33:07.443Z,7.32
2023-02-17T03:35:35.968Z,8.05
2023-02-17T03:38:05.672Z,5.70
2023-02-17T03:40:33.907Z,8.18
2023-02-17T03:43:02.432Z,6.13
2023-02-17T03:45:30.905Z,5.80
2023-02-17T03:47:58.998Z,8.00
2023-02-17T03:50:27.614Z,5.22
2023-02-17T03:52:55.811Z,8.15
2023-02-17T03:55:25.370Z,5.80
2023-02-17T03:57:53.547Z,9.20
2023-02-17T04:00:22.195Z,6.13
2023-02-17T04:02:50.402Z,9.20
2023-02-17T04:05:18.807Z,7.63
2023-02-17T04:07:47.205Z,4.82
2023-02-17T04:10:15.887Z,5.55
2023-02-17T04:12:45.852Z,11.18
2023-02-17T04:15:14.226Z,6.97
2023-02-17T04:17:42.741Z,6.03
2023-02-17T04:20:11.978Z,4.43
2023-02-17T04:22:40.110Z,8.48
2023-02-17T04:25:08.419Z,5.28
2023-02-17T04:27:36.841Z,4.88
2023-02-17T04:30:09.854Z,6.75
2023-02-17T04:32:39.485Z,8.52
2023-02-17T04:35:08.953Z,4.10
2023-02-17T04:37:37.124Z,9.25
2023-02-17T04:40:10.386Z,4.63
2023-02-17T04:42:39.031Z,7.57
2023-02-17T04:45:09.478Z,7.45
2023-02-17T04:47:38.074Z,5.22
2023-02-17T04:50:08.319Z,6.13
2023-02-17T04:52:36.658Z,7.72
2023-02-17T04:55:05.634Z,6.55
2023-02-17T04:57:33.866Z,4.93
2023-02-17T05:00:02.013Z,5.95
2023-02-17T05:02:31.888Z,6.38
2023-02-17T05:05:00.403Z,4.13
2023-02-17T05:07:28.984Z,8.57
2023-02-17T05:09:57.656Z,7.70
2023-02-17T05:12:26.039Z,1.75
2023-02-17T05:14:54.207Z,4.13
2023-02-17T05:17:22.630Z,6.78
2023-02-17T05:19:52.512Z,7.03
2023-02-17T05:22:21.056Z,6.00
2023-02-17T05:24:49.192Z,3.25
2023-02-17T05:27:17.757Z,5.43
2023-02-17T05:29:46.375Z,8.10
2023-02-17T05:32:14.537Z,4.22
2023-02-17T05:34:42.995Z,6.60
2023-02-17T05:37:12.663Z,3.72
2023-02-17T05:39:41.159Z,5.63
2023-02-17T05:42:09.284Z,5.00
2023-02-17T05:44:37.471Z,4.70
2023-02-17T05:47:06.318Z,3.72
2023-02-17T05:49:34.507Z,5.70
2023-02-17T05:52:03.304Z,4.95
2023-02-17T05:54:32.925Z,4.05
2023-02-17T05:57:01.072Z,5.15
2023-02-17T05:59:29.426Z,5.95
2023-02-17T06:01:57.583Z,6.57
2023-02-17T06:04:25.707Z,3.88
2023-02-17T06:06:53.933Z,5.20
2023-02-17T06:09:22.354Z,3.80
2023-02-17T06:11:52.455Z,3.38
2023-02-17T06:14:20.696Z,6.28
2023-02-17T06:16:48.840Z,3.53
2023-02-17T06:19:17.033Z,6.13
2023-02-17T06:21:45.300Z,3.05
2023-02-17T06:24:13.974Z,6.20
2023-02-17T06:26:42.162Z,7.40
2023-02-17T06:29:12.076Z,5.72
2023-02-17T06:31:40.694Z,4.72
2023-02-17T06:34:08.893Z,6.30
2023-02-17T06:36:37.058Z,3.80
2023-02-17T06:39:05.500Z,3.45
2023-02-17T06:41:34.524Z,4.45
2023-02-17T06:44:02.961Z,2.97
2023-02-17T06:46:32.732Z,5.82
2023-02-17T06:49:01.541Z,6.10
2023-02-17T06:51:30.224Z,3.85
2023-02-17T06:53:58.479Z,7.32
2023-02-17T06:56:26.643Z,5.28
2023-02-17T06:58:55.190Z,5.35
2023-02-17T07:01:26.231Z,5.93
2023-02-17T07:03:56.298Z,6.20
2023-02-17T07:06:26.316Z,5.70
2023-02-17T07:08:55.635Z,7.80
2023-02-17T07:11:23.970Z,4.18
2023-02-17T07:13:52.310Z,3.35
2023-02-17T07:16:20.510Z,3.58
2023-02-17T07:18:48.960Z,8.45
2023-02-17T07:21:18.601Z,4.35
2023-02-17T07:23:46.986Z,4.80
2023-02-17T07:26:15.997Z,5.32
2023-02-17T07:28:44.621Z,7.13
2023-02-17T07:31:15.768Z,5.68
2023-02-17T07:33:45.492Z,3.67
2023-02-17T07:36:17.253Z,5.30
2023-02-17T07:38:46.870Z,4.68
2023-02-17T07:41:18.159Z,7.03
2023-02-17T07:43:47.389Z,5.20
2023-02-17T07:46:16.202Z,5.82
2023-02-17T07:48:44.380Z,7.53
2023-02-17T07:51:14.535Z,7.40
2023-02-17T07:53:43.482Z,2.95
2023-02-17T07:56:15.245Z,4.30
2023-02-17T07:58:44.794Z,6.03
2023-02-17T08:01:15.141Z,9.48
2023-02-17T08:03:43.929Z,5.38
2023-02-17T08:06:13.417Z,6.57
2023-02-17T08:08:59.792Z,8.18
2023-02-17T08:11:48.929Z,6.88
2023-02-17T08:14:18.566Z,9.93
2023-02-17T08:16:47.069Z,7.40
2023-02-17T08:19:15.308Z,8.38
2023-02-17T08:21:43.449Z,7.70
2023-02-17T08:24:12.610Z,6.30
2023-02-17T08:26:42.204Z,5.82
2023-02-17T08:29:10.459Z,5.00
2023-02-17T08:31:39.448Z,7.82
2023-02-17T08:34:09.756Z,9.95
2023-02-17T08:36:38.837Z,10.23
2023-02-17T08:39:08.811Z,4.88
2023-02-17T08:41:39.185Z,4.38
2023-02-17T08:44:12.314Z,9.45
2023-02-17T08:46:41.560Z,7.32
2023-02-17T08:49:10.320Z,5.97
2023-02-17T08:51:38.805Z,5.57
2023-02-17T08:54:08.070Z,7.22
2023-02-17T08:56:37.424Z,8.07
2023-02-17T08:59:06.045Z,4.82
2023-02-17T09:01:36.460Z,4.93
2023-02-17T09:04:07.068Z,7.32
2023-02-17T09:06:37.288Z,7.57
2023-02-17T09:09:07.419Z,4.78
2023-02-17T09:11:35.716Z,4.75
2023-02-17T09:14:04.010Z,3.60
2023-02-17T09:16:32.634Z,7.10
2023-02-17T09:19:02.286Z,8.93
2023-02-17T09:21:30.920Z,3.90
2023-02-17T09:23:59.071Z,4.53
2023-02-17T09:26:27.742Z,7.35
2023-02-17T09:28:57.581Z,6.05
2023-02-17T09:31:28.573Z,6.38
2023-02-17T09:33:57.140Z,5.68
2023-02-17T09:36:28.808Z,3.35
2023-02-17T09:38:57.595Z,6.22
2023-02-17T09:41:28.493Z,3.67
2023-02-17T09:43:57.089Z,2.88
2023-02-17T09:46:30.012Z,5.22
2023-02-17T09:49:02.390Z,3.58
2023-02-17T09:51:37.297Z,4.10
2023-02-17T09:54:12.477Z,3.85
2023-02-17T09:56:46.138Z,5.82
2023-02-17T09:59:20.044Z,3.75
2023-02-17T10:01:50.074Z,3.60
2023-02-17T10:04:22.812Z,3.67
2023-02-17T10:06:56.049Z,3.83
2023-02-17T10:09:29.902Z,2.30
2023-02-17T10:12:03.981Z,4.13
2023-02-17T10:14:37.882Z,3.65
2023-02-17T10:17:12.019Z,2.97
2023-02-17T10:19:50.329Z,2.42
2023-02-17T10:22:22.965Z,2.40
2023-02-17T10:24:51.138Z,4.75
2023-02-17T10:27:35.037Z,4.80
2023-02-17T10:30:25.309Z,2.72
2023-02-17T10:33:02.202Z,4.35
2023-02-17T10:35:51.083Z,3.55
2023-02-17T10:38:35.686Z,4.95
2023-02-17T10:41:07.097Z,3.80
2023-02-17T10:43:35.579Z,2.40
2023-02-17T10:46:07.224Z,4.28
2023-02-17T10:48:39.008Z,3.90
2023-02-17T10:51:08.201Z,3.53
2023-02-17T10:53:40.788Z,2.83
2023-02-17T10:56:14.786Z,4.47
2023-02-17T10:58:51.500Z,2.83
2023-02-17T11:01:20.374Z,3.92
2023-02-17T11:03:49.218Z,3.10
2023-02-17T11:06:20.127Z,2.83
2023-02-17T11:08:52.287Z,3.28
2023-02-17T11:11:22.485Z,4.60
2023-02-17T11:14:04.876Z,3.20
2023-02-17T11:16:37.863Z,2.83
2023-02-17T11:19:07.615Z,3.75
2023-02-17T11:21:36.554Z,4.05
2023-02-17T11:24:07.411Z,3.97
2023-02-17T11:26:37.249Z,4.47
2023-02-17T11:29:09.892Z,4.30
2023-02-17T11:31:38.343Z,3.88
2023-02-17T11:34:14.793Z,3.50
2023-02-17T11:36:46.355Z,4.53
2023-02-17T11:39:23.595Z,4.18
2023-02-17T11:41:51.751Z,5.15
2023-02-17T11:44:30.175Z,4.32
2023-02-17T11:47:10.875Z,5.00
2023-02-17T11:50:15.052Z,4.95
2023-02-17T11:52:58.645Z,3.80
2023-02-17T11:55:37.113Z,6.20
2023-02-17T11:58:21.276Z,4.00
2023-02-17T12:00:56.970Z,4.57
2023-02-17T12:03:43.120Z,4.53
2023-02-17T12:06:18.535Z,4.15
2023-02-17T12:09:01.086Z,3.92
2023-02-17T12:11:37.502Z,5.28
2023-02-17T12:14:21.434Z,3.50
2023-02-17T12:16:57.022Z,4.43
2023-02-17T12:19:39.408Z,3.35
2023-02-17T12:22:19.018Z,5.28
2023-02-17T12:25:12.998Z,3.67
2023-02-17T12:27:56.329Z,2.65
2023-02-17T12:30:33.304Z,5.13
2023-02-17T12:33:15.919Z,4.30
2023-02-17T12:35:51.413Z,4.20
2023-02-17T12:38:23.005Z,3.95
2023-02-17T12:40:54.900Z,4.35
2023-02-17T12:43:29.450Z,3.25
2023-02-17T12:46:01.429Z,3.50
2023-02-17T12:48:36.918Z,3.95
2023-02-17T12:51:10.723Z,6.18
2023-02-17T12:53:47.936Z,3.88
2023-02-17T12:56:34.753Z,3.70
2023-02-17T12:59:14.582Z,3.80
2023-02-17T13:01:50.882Z,5.43
2023-02-17T13:04:20.867Z,6.25
2023-02-17T13:06:54.947Z,3.80
2023-02-17T13:09:31.857Z,6.75
2023-02-17T13:12:39.094Z,5.82
2023-02-17T13:15:29.541Z,5.60
2023-02-17T13:18:03.141Z,6.43
2023-02-17T13:20:54.101Z,6.25
2023-02-17T13:23:31.919Z,5.00
2023-02-17T13:26:18.195Z,5.85
2023-02-17T13:28:53.297Z,4.97
2023-02-17T13:31:25.236Z,7.63
2023-02-17T13:33:56.101Z,6.78
2023-02-17T13:36:36.850Z,7.10
2023-02-17T13:39:08.815Z,6.90
2023-02-17T13:41:47.718Z,6.72
2023-02-17T13:44:28.836Z,7.35
2023-02-17T13:47:01.705Z,6.57
2023-02-17T13:49:33.167Z,5.40
2023-02-17T13:52:17.075Z,7.40
2023-02-17T13:54:54.008Z,4.20
2023-02-17T13:57:27.561Z,8.45
2023-02-17T14:00:11.057Z,7.13
2023-02-17T14:02:48.529Z,6.93
2023-02-17T14:05:22.704Z,4.65
2023-02-17T14:07:51.696Z,5.55
2023-02-17T14:10:23.638Z,6.05
2023-02-17T14:12:52.734Z,7.40
2023-02-17T14:15:23.641Z,4.22
2023-02-17T14:17:53.316Z,5.80
2023-02-17T14:20:29.770Z,6.45
2023-02-17T14:23:06.891Z,5.55
2023-02-17T14:25:37.256Z,5.22
2023-02-17T14:28:06.472Z,3.25
2023-02-17T14:30:36.778Z,2.88
2023-02-17T14:33:22.981Z,5.32
2023-02-17T14:35:54.335Z,3.80
2023-02-17T14:38:24.771Z,4.32
2023-02-17T14:40:53.530Z,5.18
2023-02-17T14:43:21.692Z,3.92
2023-02-17T14:45:50.729Z,4.47
2023-02-17T14:48:20.673Z,3.03
2023-02-17T14:50:49.304Z,4.25
2023-02-17T14:53:26.521Z,4.30
2023-02-17T14:56:00.363Z,3.67
2023-02-17T14:58:30.513Z,3.40
2023-02-17T15:00:59.106Z,3.47
2023-02-17T15:03:28.729Z,2.75
2023-02-17T15:05:57.099Z,3.60
2023-02-17T15:08:32.911Z,2.78
2023-02-17T15:11:02.454Z,3.28
2023-02-17T15:13:32.282Z,3.67
2023-02-17T15:16:00.827Z,2.83
2023-02-17T15:18:30.479Z,2.45
2023-02-17T15:20:58.650Z,3.75
2023-02-17T15:23:27.004Z,3.45
2023-02-17T15:25:56.654Z,2.47
2023-02-17T15:28:25.422Z,3.55
2023-02-17T15:30:56.387Z,2.97
2023-02-17T15:33:26.064Z,2.65
2023-02-17T15:35:56.420Z,3.08
2023-02-17T15:38:27.495Z,3.40
2023-02-17T15:40:58.735Z,1.90
2023-02-17T15:46:12.147Z,2.72
2023-02-17T15:48:40.361Z,3.03
2023-02-17T15:51:12.376Z,2.70
2023-02-17T15:53:40.589Z,2.78
2023-02-17T15:56:14.600Z,3.53
2023-02-17T15:58:44.776Z,3.78
2023-02-17T16:01:22.356Z,2.90
2023-02-17T16:03:50.775Z,2.30
2023-02-17T16:06:20.437Z,2.80
2023-02-17T16:08:48.927Z,3.70
2023-02-17T16:11:19.162Z,3.20
2023-02-17T16:13:48.418Z,2.28
2023-02-17T16:16:20.279Z,3.17
2023-02-17T16:18:48.959Z,3.25
2023-02-17T16:21:18.029Z,2.45
2023-02-17T16:23:47.916Z,3.40
2023-02-17T16:26:23.913Z,3.25
2023-02-17T16:28:52.430Z,1.98
2023-02-17T16:31:20.774Z,2.38
2023-02-17T16:33:49.348Z,3.25
2023-02-17T16:36:19.156Z,2.67
2023-02-17T16:38:51.363Z,3.58
2023-02-17T16:41:21.566Z,1.50
2023-02-17T16:43:49.752Z,3.25
2023-02-17T16:46:24.286Z,1.63
2023-02-17T16:48:52.468Z,2.53
2023-02-17T16:51:20.862Z,2.45
2023-02-17T16:53:50.610Z,2.08
2023-02-17T16:56:22.371Z,2.45
2023-02-17T16:58:50.885Z,0.98
2023-02-17T17:01:19.112Z,2.60
2023-02-17T17:03:47.773Z,2.55
2023-02-17T17:06:21.751Z,2.80
2023-02-17T17:08:51.701Z,2.92
2023-02-17T17:11:22.184Z,2.58
2023-02-17T17:13:51.296Z,3.03
2023-02-17T17:16:22.372Z,1.70
2023-02-17T17:18:50.822Z,2.35
2023-02-17T17:21:20.724Z,2.50
2023-02-17T17:23:51.159Z,2.50
2023-02-17T17:26:25.950Z,2.83
2023-02-17T17:28:55.120Z,2.45
2023-02-17T17:31:24.372Z,3.00
2023-02-17T17:33:53.715Z,2.45
2023-02-17T17:36:26.623Z,2.47
2023-02-17T17:38:57.943Z,2.63
2023-02-17T17:41:27.725Z,3.20
2023-02-17T17:43:56.013Z,3.75
2023-02-17T17:46:26.354Z,3.03
2023-02-17T17:48:55.038Z,3.75
2023-02-17T17:51:24.416Z,4.72
2023-02-17T17:53:53.125Z,3.78
2023-02-17T17:56:26.235Z,2.58
2023-02-17T17:58:54.733Z,2.42
2023-02-17T18:01:23.559Z,2.47
2023-02-17T18:03:52.316Z,2.90
2023-02-17T18:06:23.962Z,2.80
2023-02-17T18:08:54.723Z,2.78
2023-02-17T18:11:26.421Z,2.33
2023-02-17T18:13:59.435Z,2.05
2023-02-17T18:16:29.873Z,1.80
2023-02-17T18:18:59.431Z,2.35
2023-02-17T18:21:27.614Z,1.77
2023-02-17T18:23:55.957Z,2.17
2023-02-17T18:26:25.561Z,1.00
2023-02-17T18:28:53.719Z,2.15
2023-02-17T18:31:22.085Z,1.17
2023-02-17T18:33:50.581Z,0.98
2023-02-17T18:36:22.401Z,1.00
2023-02-17T18:38:51.054Z,0.80
2023-02-17T18:41:20.465Z,0.60
2023-02-17T18:43:50.305Z,0.85
2023-02-17T18:46:18.800Z,1.48
2023-02-17T18:48:47.793Z,0.90
2023-02-17T18:51:19.523Z,1.00
2023-02-17T18:53:49.030Z,0.50
2023-02-17T18:56:21.177Z,0.88
2023-02-17T18:58:51.838Z,1.08
2023-02-17T19:01:23.020Z,0.70
2023-02-17T19:03:51.965Z,1.58
2023-02-17T19:06:23.606Z,1.05
2023-02-17T19:08:52.657Z,0.88
2023-02-17T19:11:21.735Z,0.98
2023-02-17T19:13:52.348Z,1.08
2023-02-17T19:16:22.427Z,1.25
2023-02-17T19:18:50.777Z,0.50
2023-02-17T19:21:19.816Z,1.20
2023-02-17T19:23:48.154Z,1.10
2023-02-17T19:26:17.978Z,0.85
2023-02-17T19:28:46.925Z,1.00
2023-02-17T19:31:19.114Z,0.90
2023-02-17T19:33:48.127Z,1.00
2023-02-17T19:36:18.470Z,1.00
2023-02-17T19:38:47.047Z,0.90
2023-02-17T19:41:15.964Z,1.05
2023-02-17T19:43:44.581Z,1.02
2023-02-17T19:46:14.162Z,0.88
2023-02-17T19:48:43.807Z,1.00
2023-02-17T19:51:13.960Z,1.20
2023-02-17T19:53:43.451Z,1.15
2023-02-17T19:56:13.291Z,0.80
2023-02-17T19:58:42.425Z,1.00
2023-02-17T20:01:12.247Z,0.80
2023-02-17T20:03:40.539Z,0.70
2023-02-17T20:06:12.654Z,1.10
2023-02-17T20:08:40.945Z,0.90
2023-02-17T20:11:10.441Z,0.77
2023-02-17T20:13:45.624Z,1.30
2023-02-17T20:16:16.890Z,0.73
2023-02-17T20:18:46.652Z,0.90
2023-02-17T20:21:22.478Z,1.23
2023-02-17T20:23:51.359Z,1.10
2023-02-17T20:26:22.146Z,1.30
2023-02-17T20:28:50.752Z,1.02
2023-02-17T20:31:19.671Z,0.90
2023-02-17T20:33:48.235Z,0.60
2023-02-17T20:36:18.730Z,0.75
2023-02-17T20:38:47.109Z,0.90
2023-02-17T20:41:18.162Z,0.73
2023-02-17T20:43:46.696Z,0.80
2023-02-17T20:46:17.598Z,0.90
2023-02-17T20:48:45.805Z,1.25
2023-02-17T20:51:14.061Z,0.95
2023-02-17T20:53:43.608Z,0.77
2023-02-17T20:56:14.633Z,1.02
2023-02-17T20:58:43.081Z,1.05
2023-02-17T21:01:12.118Z,1.52
2023-02-17T21:03:40.403Z,0.88
2023-02-17T21:06:20.520Z,0.98
2023-02-17T21:08:52.273Z,0.70
2023-02-17T21:11:20.786Z,1.10
2023-02-17T21:13:49.228Z,1.95
2023-02-17T21:16:21.074Z,1.20
2023-02-17T21:18:49.294Z,1.23
2023-02-17T21:21:17.641Z,1.10
2023-02-17T21:23:47.932Z,0.88
2023-02-17T21:26:18.220Z,1.05
2023-02-17T21:28:47.358Z,1.33
2023-02-17T21:31:16.257Z,0.88
2023-02-17T21:33:44.824Z,0.70
2023-02-17T21:36:15.953Z,0.75
2023-02-17T21:38:44.201Z,0.80
2023-02-17T21:41:15.000Z,1.13
2023-02-17T21:44:02.346Z,1.25
2023-02-17T21:46:31.460Z,0.70
2023-02-17T21:49:01.805Z,1.35
2023-02-17T21:51:30.454Z,0.77
2023-02-17T21:53:59.735Z,1.23
2023-02-17T21:56:28.162Z,1.13
2023-02-17T21:58:57.817Z,1.42
2023-02-17T22:01:27.877Z,1.20
2023-02-17T22:03:57.702Z,1.08
2023-02-17T22:06:27.992Z,1.13
2023-02-17T22:08:57.095Z,1.30
2023-02-17T22:11:29.029Z,1.92
2023-02-17T22:14:01.058Z,1.10
2023-02-17T22:16:31.548Z,1.08
2023-02-17T22:18:59.881Z,0.77
2023-02-17T22:21:28.054Z,1.30
2023-02-17T22:23:56.524Z,1.92
2023-02-17T22:26:26.674Z,1.85
2023-02-17T22:28:55.175Z,0.68
2023-02-17T22:31:27.463Z,1.55
2023-02-17T22:33:58.026Z,1.10
2023-02-17T22:36:27.815Z,1.40
2023-02-17T22:38:56.372Z,1.73
2023-02-17T22:41:26.050Z,0.75
2023-02-17T22:43:55.363Z,1.15
2023-02-17T22:46:27.281Z,1.00
2023-02-17T22:48:57.194Z,0.93
2023-02-17T22:51:28.238Z,0.77
2023-02-17T22:53:56.778Z,1.10
2023-02-17T22:56:25.785Z,1.10
2023-02-17T22:58:56.505Z,1.27
2023-02-17T23:01:26.507Z,0.93
2023-02-17T23:03:55.166Z,0.90
2023-02-17T23:06:25.887Z,1.15
2023-02-17T23:08:54.697Z,0.98
2023-02-17T23:11:39.020Z,1.13
2023-02-17T23:14:07.514Z,0.75
2023-02-17T23:16:37.670Z,1.50
2023-02-17T23:19:08.545Z,1.98
2023-02-17T23:21:36.955Z,1.42
2023-02-17T23:24:05.771Z,1.17
2023-02-17T23:26:34.147Z,0.55
2023-02-17T23:29:02.338Z,0.90
2023-02-17T23:31:30.996Z,1.23
2023-02-17T23:34:00.723Z,1.35
2023-02-17T23:36:29.198Z,1.25
2023-02-17T23:38:59.687Z,0.73
2023-02-17T23:41:28.508Z,1.20
2023-02-17T23:43:56.981Z,1.58
2023-02-17T23:46:25.336Z,1.23
2023-02-17T23:48:53.877Z,0.88
2023-02-17T23:51:23.737Z,0.88
2023-02-17T23:53:52.111Z,0.88
2023-02-17T23:56:23.077Z,0.98
2023-02-17T23:58:51.228Z,1.45
